Time;durP1;ratioP1;P1;durP2;ratioP2;P2;SDS_P1;SDS_P2;PMS_P1;PMS_P2;Temp;Humidity;BMP_temperature;BMP_pressure;BME280_temperature;BME280_humidity;BME280_pressure;Samples;Min_cycle;Max_cycle;Signal;HPM_P1;HPM_P2
2021/11/02 09:19:40;;;;;;;41.70;23.38;;;;;;;10.80;44.67;97961.69;1840945;76;22951;-77
2021/11/02 09:22:11;;;;;;;42.88;19.10;;;;;;;10.06;49.47;97964.78;1842019;77;20999;-77
2021/11/02 09:26:25;;;;;;;42.83;19.98;;;;;;;9.49;50.74;97961.41;1862143;75;24073;-77
2021/11/02 09:28:54;;;;;;;43.45;19.48;;;;;;;9.25;48.66;97956.72;1826317;77;22091;-77
2021/11/02 09:31:27;;;;;;;49.15;23.45;;;;;;;8.94;52.75;97957.00;1826526;77;21043;-77
2021/11/02 09:33:54;;;;;;;47.15;20.25;;;;;;;8.82;51.77;97960.89;1824249;77;20951;-77
2021/11/02 09:36:24;;;;;;;36.55;17.12;;;;;;;8.77;51.27;97956.30;1822143;77;21031;-80
2021/11/02 09:38:59;;;;;;;42.10;20.32;;;;;;;8.73;52.65;97957.31;1821141;77;21387;-80
2021/11/02 09:41:47;;;;;;;41.13;18.65;;;;;;;8.74;50.63;97948.20;1822822;78;20999;-79
2021/11/02 09:44:56;;;;;;;36.95;16.85;;;;;;;8.73;51.98;97949.12;1814332;77;21070;-78
2021/11/02 09:47:47;;;;;;;38.05;17.75;;;;;;;8.75;51.34;97951.63;1803691;78;21057;-79
2021/11/02 09:50:41;;;;;;;40.63;19.30;;;;;;;8.82;50.93;97949.69;1819570;77;21555;-80
2021/11/02 09:54:00;;;;;;;34.98;17.70;;;;;;;8.82;52.81;97945.80;1817032;77;21065;-79
2021/11/02 09:57:03;;;;;;;62.43;33.02;;;;;;;8.83;52.41;97939.23;1809711;78;21033;-79
2021/11/02 09:59:43;;;;;;;67.75;33.73;;;;;;;8.87;52.90;97949.05;1823743;77;20971;-78
2021/11/02 10:02:23;;;;;;;46.45;21.70;;;;;;;8.91;51.82;97951.49;1828940;77;21011;-79
2021/11/02 10:05:26;;;;;;;81.40;43.55;;;;;;;8.96;53.29;97943.08;1823116;77;21063;-83
2021/11/02 10:08:10;;;;;;;63.85;31.73;;;;;;;8.99;51.83;97939.52;1796413;78;21066;-79
2021/11/02 10:11:04;;;;;;;47.45;20.32;;;;;;;8.99;53.12;97941.27;1819057;77;20990;-76
2021/11/02 10:13:41;;;;;;;39.98;17.73;;;;;;;8.95;51.68;97934.92;1819669;77;20964;-77
2021/11/02 10:16:33;;;;;;;68.90;30.17;;;;;;;8.93;52.43;97934.13;1815852;78;21014;-77
2021/11/02 10:19:50;;;;;;;51.08;20.60;;;;;;;8.90;52.45;97931.64;1816335;77;21527;-77
2021/11/02 10:22:55;;;;;;;38.13;17.20;;;;;;;8.84;52.60;97924.09;1824015;77;20991;-77
2021/11/02 10:26:06;;;;;;;43.48;19.02;;;;;;;8.84;52.11;97920.20;1828095;77;21541;-78
2021/11/02 10:29:07;;;;;;;40.80;16.93;;;;;;;8.85;50.31;97913.27;1810309;77;21067;-79
2021/11/02 10:32:01;;;;;;;36.98;15.83;;;;;;;8.85;51.77;97905.49;1782030;77;21057;-78
2021/11/02 10:34:39;;;;;;;31.30;14.40;;;;;;;8.87;50.20;97907.58;1814686;77;20995;-79
2021/11/02 10:37:22;;;;;;;36.28;15.55;;;;;;;8.87;52.26;97890.73;1823597;77;20991;-76
2021/11/02 10:40:18;;;;;;;34.43;16.93;;;;;;;8.89;52.21;97875.54;1804697;77;20982;-79
2021/11/02 10:43:22;;;;;;;43.10;19.70;;;;;;;8.91;51.63;97881.94;1824276;77;20970;-78
2021/11/02 10:45:57;;;;;;;103.65;37.00;;;;;;;8.95;51.74;97879.19;1812892;77;20971;-78
2021/11/02 10:48:42;;;;;;;185.30;66.57;;;;;;;9.00;52.31;97878.17;1817176;77;20955;-79
2021/11/02 10:51:37;;;;;;;513.15;221.55;;;;;;;9.04;51.98;97877.15;1823763;77;21439;-79
2021/11/02 10:54:17;;;;;;;302.20;114.22;;;;;;;9.03;51.47;97871.55;1825686;77;21472;-78
2021/11/02 10:57:02;;;;;;;88.97;39.80;;;;;;;9.02;51.64;97869.88;1822075;77;20973;-79
2021/11/02 10:59:32;;;;;;;179.80;64.05;;;;;;;9.03;51.93;97867.23;1818282;77;20950;-78
2021/11/02 11:01:59;;;;;;;100.67;35.63;;;;;;;9.05;51.37;97861.54;1813896;77;21798;-78
2021/11/02 11:04:31;;;;;;;41.55;18.77;;;;;;;9.07;51.04;97864.05;1827048;77;21514;-80
2021/11/02 11:06:58;;;;;;;38.98;17.85;;;;;;;9.10;51.20;97864.78;1824718;77;21044;-79
2021/11/02 11:09:30;;;;;;;43.52;19.07;;;;;;;9.13;50.88;97862.52;1826252;77;21511;-78
2021/11/02 11:12:00;;;;;;;68.10;25.70;;;;;;;9.15;51.90;97873.23;1823814;77;20999;-80
2021/11/02 11:14:32;;;;;;;74.07;24.95;;;;;;;9.18;52.14;97880.50;1822982;77;20974;-79
2021/11/02 11:17:00;;;;;;;60.30;23.57;;;;;;;9.21;51.26;97880.37;1822537;77;20946;-80
2021/11/02 11:19:57;;;;;;;75.87;29.95;;;;;;;9.16;52.05;97881.39;1823574;77;20987;-79
2021/11/02 11:22:28;;;;;;;76.30;26.97;;;;;;;9.17;53.93;97890.01;1810957;77;21026;-77
2021/11/02 11:25:09;;;;;;;48.35;20.85;;;;;;;9.15;53.43;97890.09;1828441;77;21073;-78
2021/11/02 11:27:44;;;;;;;60.15;22.32;;;;;;;9.14;53.78;97888.39;1823555;77;20994;-78
2021/11/02 11:30:12;;;;;;;187.85;51.88;;;;;;;9.11;52.39;97892.84;1827566;77;22237;-79
2021/11/02 11:32:41;;;;;;;129.87;40.35;;;;;;;9.08;53.99;97892.98;1826784;77;21105;-78
2021/11/02 11:35:10;;;;;;;85.47;30.52;;;;;;;9.03;54.52;97884.09;1816621;78;21082;-78
2021/11/02 11:37:43;;;;;;;78.47;29.12;;;;;;;9.00;55.99;97879.00;1815783;77;21078;-79
2021/11/02 11:40:15;;;;;;;118.82;46.70;;;;;;;8.96;54.14;97883.91;1828206;77;21454;-77
2021/11/02 11:42:48;;;;;;;119.87;40.08;;;;;;;8.91;56.81;97878.92;1809649;77;21037;-78
2021/11/02 11:45:26;;;;;;;62.38;27.13;;;;;;;8.93;55.05;97878.41;1811334;78;21051;-78
2021/11/02 11:48:20;;;;;;;70.17;27.67;;;;;;;8.85;57.79;97876.53;1808971;78;20944;-78
2021/11/02 11:50:45;;;;;;;55.67;24.45;;;;;;;8.84;57.56;97887.81;1806337;77;21026;-77
2021/11/02 11:53:17;;;;;;;70.45;29.48;;;;;;;8.79;57.88;97889.72;1807892;77;21063;-77
2021/11/02 11:55:47;;;;;;;317.37;101.50;;;;;;;8.76;60.58;97884.20;1815106;77;21003;-77
2021/11/02 11:58:23;;;;;;;328.05;102.58;;;;;;;8.69;58.22;97879.30;1818646;78;20955;-77
2021/11/02 12:00:54;;;;;;;215.43;68.30;;;;;;;8.63;59.06;97876.48;1819278;78;21007;-77
2021/11/02 12:03:41;;;;;;;86.35;36.10;;;;;;;8.58;61.99;97884.05;1817001;77;21026;-75
2021/11/02 12:06:20;;;;;;;70.85;27.35;;;;;;;8.53;59.96;97881.19;1809607;77;21027;-77
2021/11/02 12:09:00;;;;;;;214.50;69.90;;;;;;;8.46;59.14;97875.81;1813784;78;21038;-78
2021/11/02 12:11:31;;;;;;;286.00;98.15;;;;;;;8.43;60.39;97864.25;1815308;78;21062;-77
2021/11/02 12:14:12;;;;;;;85.07;33.15;;;;;;;8.44;59.71;97874.19;1813849;77;21038;-77
2021/11/02 12:16:42;;;;;;;63.02;24.95;;;;;;;8.37;59.79;97878.69;1805811;78;21503;-77
2021/11/02 12:19:20;;;;;;;63.73;23.30;;;;;;;8.33;59.82;97877.11;1811418;78;20983;-75
2021/11/02 12:22:01;;;;;;;48.42;17.80;;;;;;;8.30;63.70;97870.77;1818052;78;21491;-78
2021/11/02 12:24:36;;;;;;;103.72;33.00;;;;;;;8.28;61.76;97880.33;1815008;77;21362;-76
2021/11/02 12:27:18;;;;;;;91.63;31.12;;;;;;;8.31;58.80;97882.80;1829013;75;21026;-76
2021/11/02 12:29:47;;;;;;;51.53;17.05;;;;;;;8.30;60.79;97893.61;1825677;77;20963;-76
2021/11/02 12:32:17;;;;;;;48.55;18.05;;;;;;;8.31;60.48;97887.52;1829691;77;21015;-77
2021/11/02 12:34:57;;;;;;;45.10;16.62;;;;;;;8.35;60.23;97889.09;1827828;77;20998;-79
2021/11/02 12:37:25;;;;;;;37.95;15.15;;;;;;;8.35;61.16;97888.26;1824904;77;21052;-78
2021/11/02 12:39:52;;;;;;;48.13;19.25;;;;;;;8.37;61.74;97873.52;1820942;77;20991;-79
2021/11/02 12:42:39;;;;;;;137.32;39.70;;;;;;;8.40;61.95;97860.92;1830668;77;21037;-78
2021/11/02 12:45:04;;;;;;;149.42;45.92;;;;;;;8.40;61.38;97847.52;1829798;77;21159;-76
2021/11/02 12:47:32;;;;;;;85.83;29.27;;;;;;;8.39;62.48;97835.91;1831202;77;21002;-77
2021/11/02 12:50:04;;;;;;;43.68;20.37;;;;;;;8.38;61.74;97851.07;1824549;77;21009;-79
2021/11/02 12:52:35;;;;;;;40.55;18.02;;;;;;;8.39;61.39;97863.94;1833648;77;21495;-78
2021/11/02 12:55:10;;;;;;;34.90;16.10;;;;;;;8.41;61.15;97876.42;1827663;77;20969;-77
2021/11/02 12:57:49;;;;;;;34.95;16.62;;;;;;;8.43;61.13;97886.27;1826402;77;21033;-77
2021/11/02 13:00:26;;;;;;;38.92;15.45;;;;;;;8.43;60.04;97880.25;1830041;77;20987;-78
2021/11/02 13:02:55;;;;;;;33.38;15.90;;;;;;;8.40;60.06;97878.59;1829326;77;20988;-78
2021/11/02 13:05:28;;;;;;;49.00;19.12;;;;;;;8.42;60.33;97862.58;1793664;80;21018;-79
2021/11/02 13:08:11;;;;;;;40.58;18.05;;;;;;;8.43;61.94;97869.44;1776030;79;20999;-77
2021/11/02 13:10:41;;;;;;;43.48;18.62;;;;;;;8.45;62.29;97869.39;1784245;79;20986;-77
2021/11/02 13:13:17;;;;;;;33.00;15.78;;;;;;;8.52;61.89;97866.52;1775912;80;21007;-76
2021/11/02 13:15:55;;;;;;;47.62;19.12;;;;;;;8.61;59.65;97874.86;1757555;81;20982;-77
2021/11/02 13:18:39;;;;;;;49.80;19.25;;;;;;;8.61;60.67;97871.80;1777719;79;21039;-77
2021/11/02 13:21:28;;;;;;;44.15;20.40;;;;;;;8.66;61.05;97875.55;1777086;80;21058;-77
2021/11/02 13:24:19;;;;;;;41.83;19.95;;;;;;;8.71;61.45;97866.70;1771966;80;21564;-77
2021/11/02 13:26:50;;;;;;;43.75;20.27;;;;;;;8.79;62.11;97875.46;1779818;79;20968;-78
2021/11/02 13:29:23;;;;;;;49.30;21.73;;;;;;;8.83;62.28;97872.31;1773487;79;21555;-80
2021/11/02 13:31:53;;;;;;;44.65;21.42;;;;;;;8.89;61.42;97866.89;1788625;79;21546;-77
2021/11/02 13:34:34;;;;;;;52.73;24.07;;;;;;;8.98;61.51;97870.91;1783442;80;21106;-78
2021/11/02 13:37:04;;;;;;;45.73;21.10;;;;;;;9.05;63.66;97862.84;1780962;79;21067;-78
2021/11/02 13:39:55;;;;;;;48.95;21.23;;;;;;;9.15;60.84;97858.98;1782670;79;21027;-79
2021/11/02 13:42:52;;;;;;;47.50;20.60;;;;;;;9.22;61.54;97847.91;1786363;79;21054;-80
2021/11/02 13:45:23;;;;;;;42.95;20.60;;;;;;;9.30;60.14;97856.22;1776058;79;21010;-80
2021/11/02 13:47:50;;;;;;;47.08;20.62;;;;;;;9.35;60.75;97863.38;1789221;79;21542;-79
2021/11/02 13:50:17;;;;;;;55.15;21.23;;;;;;;9.35;59.15;97874.18;1777022;79;21066;-80
2021/11/02 13:52:43;;;;;;;56.98;25.15;;;;;;;9.30;59.34;97880.02;1785220;79;21068;-80
2021/11/02 13:55:10;;;;;;;56.48;24.27;;;;;;;9.30;58.73;97881.32;1780962;79;21042;-80
2021/11/02 13:57:37;;;;;;;53.58;22.58;;;;;;;9.27;58.48;97886.61;1787415;79;21508;-78
2021/11/02 14:00:09;;;;;;;49.23;22.50;;;;;;;9.24;59.18;97886.28;1785657;79;21584;-78
2021/11/02 14:02:41;;;;;;;54.88;24.50;;;;;;;9.24;58.87;97882.39;1783376;79;21051;-79
2021/11/02 14:05:10;;;;;;;54.00;24.43;;;;;;;9.25;59.10;97881.94;1787645;79;21035;-80
2021/11/02 14:07:37;;;;;;;53.38;25.82;;;;;;;9.22;60.63;97876.42;1788546;79;21105;-78
2021/11/02 14:10:09;;;;;;;57.23;25.12;;;;;;;9.26;58.86;97875.41;1781467;79;21113;-78
2021/11/02 14:12:53;;;;;;;58.63;24.00;;;;;;;9.27;59.44;97882.72;1779769;79;21030;-78
2021/11/02 14:15:29;;;;;;;61.13;26.05;;;;;;;9.30;59.50;97889.94;1779509;79;21019;-77
2021/11/02 14:18:08;;;;;;;58.68;25.02;;;;;;;9.34;59.58;97897.15;1781329;79;22717;-78
2021/11/02 14:20:50;;;;;;;50.45;23.57;;;;;;;9.33;59.65;97893.72;1785014;79;21000;-78
2021/11/02 14:23:41;;;;;;;61.42;25.27;;;;;;;9.32;58.69;97893.31;1757448;79;21489;-76
2021/11/02 14:26:28;;;;;;;56.70;24.63;;;;;;;9.32;59.83;97893.77;1782301;79;21043;-78
2021/11/02 14:29:00;;;;;;;54.95;25.48;;;;;;;9.32;60.69;97901.09;1787986;79;21499;-77
2021/11/02 14:31:43;;;;;;;56.75;25.20;;;;;;;9.29;60.18;97895.17;1779853;79;21070;-77
2021/11/02 14:34:46;;;;;;;68.22;28.05;;;;;;;9.27;60.76;97903.04;1781126;79;21082;-77
2021/11/02 14:37:21;;;;;;;61.98;27.20;;;;;;;9.24;61.93;97897.13;1775326;79;21019;-77
2021/11/02 14:40:07;;;;;;;62.03;25.32;;;;;;;9.19;61.63;97903.80;1784827;79;21050;-78
2021/11/02 14:42:48;;;;;;;68.85;25.97;;;;;;;9.17;61.82;97901.68;1787477;79;21504;-78
2021/11/02 14:45:18;;;;;;;53.28;24.25;;;;;;;9.13;62.04;97897.52;1793003;79;21047;-77
2021/11/02 14:47:48;;;;;;;65.08;26.42;;;;;;;9.12;62.65;97901.03;1787153;78;20974;-77
2021/11/02 14:50:38;;;;;;;64.58;26.23;;;;;;;9.12;62.98;97905.75;1774216;79;21621;-77
2021/11/02 14:53:12;;;;;;;68.28;30.35;;;;;;;9.15;62.85;97907.38;1780578;78;20999;-77
2021/11/02 14:55:56;;;;;;;117.75;45.73;;;;;;;9.17;63.11;97900.38;1769969;78;21070;-78
2021/11/02 14:58:52;;;;;;;326.45;105.30;;;;;;;9.18;63.38;97905.14;1773343;78;21078;-78
2021/11/02 15:01:40;;;;;;;356.30;118.75;;;;;;;9.21;63.46;97911.06;1768833;78;21000;-79
2021/11/02 15:04:17;;;;;;;467.57;169.47;;;;;;;9.22;63.45;97910.14;1763774;80;21014;-79
2021/11/02 15:06:58;;;;;;;430.73;156.40;;;;;;;9.23;63.86;97907.95;1777379;78;21171;-79
2021/11/02 15:09:38;;;;;;;375.70;140.62;;;;;;;9.22;64.00;97903.66;1770688;78;21026;-79
2021/11/02 15:12:07;;;;;;;399.75;150.35;;;;;;;9.20;64.34;97904.63;1768088;78;21039;-80
2021/11/02 15:14:39;;;;;;;618.70;254.23;;;;;;;9.15;63.56;97909.97;1773310;78;21070;-80
2021/11/02 15:17:10;;;;;;;371.95;141.88;;;;;;;9.11;64.06;97908.40;1775793;78;21014;-78
2021/11/02 15:19:40;;;;;;;219.40;82.97;;;;;;;9.06;64.14;97912.93;1774237;78;21611;-79
2021/11/02 15:22:11;;;;;;;120.72;50.05;;;;;;;9.02;64.23;97909.61;1776601;78;21280;-78
2021/11/02 15:24:41;;;;;;;158.12;66.97;;;;;;;8.97;64.56;97910.22;1766995;79;21099;-79
2021/11/02 15:27:24;;;;;;;142.55;55.08;;;;;;;8.92;65.03;97909.10;1770979;78;20976;-80
2021/11/02 15:29:55;;;;;;;91.40;38.73;;;;;;;8.90;63.53;97914.80;1773981;78;20980;-79
2021/11/02 15:32:26;;;;;;;65.00;30.15;;;;;;;8.84;65.27;97912.44;1781782;78;21090;-78
2021/11/02 15:34:58;;;;;;;64.15;27.42;;;;;;;8.76;65.27;97911.88;1776218;78;21070;-77
2021/11/02 15:37:33;;;;;;;69.22;28.77;;;;;;;8.69;65.19;97930.66;1783369;79;22189;-79
2021/11/02 15:40:12;;;;;;;61.00;27.17;;;;;;;8.62;64.66;97922.73;1779997;78;20980;-78
2021/11/02 15:42:49;;;;;;;82.42;33.13;;;;;;;8.59;65.00;97933.66;1782476;78;21483;-79
2021/11/02 15:45:32;;;;;;;115.37;44.45;;;;;;;8.54;64.67;97939.84;1784415;78;21002;-79
2021/11/02 15:48:15;;;;;;;105.17;39.50;;;;;;;8.50;66.04;97939.56;1778761;80;21663;-80
2021/11/02 15:50:46;;;;;;;91.45;32.15;;;;;;;8.45;64.04;97953.11;1764337;80;21059;-80
2021/11/02 15:53:19;;;;;;;77.25;32.15;;;;;;;8.40;64.07;97952.86;1778653;80;21007;-79
2021/11/02 15:55:48;;;;;;;70.57;28.83;;;;;;;8.35;65.73;97946.53;1767666;80;21380;-78
2021/11/02 15:58:16;;;;;;;74.95;28.90;;;;;;;8.35;66.05;97944.77;1786358;80;20983;-79
2021/11/02 16:00:45;;;;;;;70.45;28.00;;;;;;;8.36;64.54;97954.70;1786348;80;21000;-79
2021/11/02 16:03:12;;;;;;;68.55;28.92;;;;;;;8.35;65.18;97962.06;1765022;80;20996;-80
2021/11/02 16:05:42;;;;;;;73.37;29.25;;;;;;;8.32;66.10;97965.61;1747922;80;21032;-80
2021/11/02 16:08:23;;;;;;;77.95;32.20;;;;;;;8.34;65.58;97965.57;1762286;80;21012;-79
2021/11/02 16:11:03;;;;;;;77.05;30.02;;;;;;;8.35;66.17;97961.61;1742532;80;20984;-79
2021/11/02 16:13:30;;;;;;;76.50;28.25;;;;;;;8.41;65.83;97969.66;1747490;81;21055;-79
2021/11/02 16:15:59;;;;;;;76.92;29.63;;;;;;;8.42;66.62;97973.95;1743414;80;21063;-78
2021/11/02 16:18:29;;;;;;;76.80;31.77;;;;;;;8.41;67.65;97977.42;1770991;80;20979;-79
2021/11/02 16:21:02;;;;;;;74.30;30.60;;;;;;;8.42;67.71;97986.90;1798921;80;20997;-79
2021/11/02 16:23:45;;;;;;;92.15;33.90;;;;;;;8.43;66.94;97984.69;1775399;79;20992;-79
2021/11/02 16:26:16;;;;;;;82.82;33.25;;;;;;;8.41;65.62;97986.48;1791072;80;21025;-80
2021/11/02 16:28:44;;;;;;;65.52;27.80;;;;;;;8.39;65.86;98001.20;1765647;80;21069;-80
2021/11/02 16:31:21;;;;;;;62.98;27.48;;;;;;;8.35;66.22;98000.91;1783214;80;20968;-80
2021/11/02 16:33:48;;;;;;;59.15;25.43;;;;;;;8.34;65.49;97997.94;1770424;80;21007;-79
2021/11/02 16:36:27;;;;;;;65.03;27.25;;;;;;;8.29;68.26;98001.12;1744328;80;21023;-79
2021/11/02 16:39:16;;;;;;;56.02;26.07;;;;;;;8.23;69.60;98003.91;1770441;80;21506;-81
2021/11/02 16:42:05;;;;;;;63.08;24.92;;;;;;;8.22;66.92;97994.47;1775577;80;21004;-79
2021/11/02 16:44:35;;;;;;;66.82;23.65;;;;;;;8.15;66.91;98002.87;1772356;80;21027;-80
2021/11/02 16:47:15;;;;;;;58.52;24.32;;;;;;;8.12;67.92;98006.87;1741184;80;21025;-79
2021/11/02 16:49:45;;;;;;;53.75;22.62;;;;;;;8.12;66.35;98002.53;1756036;80;21094;-79
2021/11/02 16:52:28;;;;;;;53.45;23.85;;;;;;;8.10;67.18;98000.44;1748447;80;21058;-80
2021/11/02 16:55:15;;;;;;;62.60;23.92;;;;;;;8.12;67.24;97994.77;1760587;80;20995;-78
2021/11/02 16:57:43;;;;;;;54.30;22.75;;;;;;;8.12;68.56;97994.77;1768432;80;21021;-80
2021/11/02 17:00:12;;;;;;;64.45;23.32;;;;;;;8.15;68.84;98005.00;1759381;80;20979;-80
2021/11/02 17:02:46;;;;;;;53.33;23.38;;;;;;;8.17;68.31;98004.95;1770426;80;21045;-83
2021/11/02 17:05:23;;;;;;;60.10;24.10;;;;;;;8.19;68.62;98005.75;1756007;80;21043;-80
2021/11/02 17:08:09;;;;;;;60.75;25.45;;;;;;;8.24;68.58;98005.63;1783152;80;21118;-79
2021/11/02 17:10:46;;;;;;;60.95;25.92;;;;;;;8.23;69.59;98012.52;1756366;80;21054;-78
2021/11/02 17:13:25;;;;;;;56.15;26.30;;;;;;;8.23;70.36;98005.20;1783175;80;20996;-79
2021/11/02 17:16:02;;;;;;;59.30;24.77;;;;;;;8.20;69.15;98009.18;1755086;80;21027;-80
2021/11/02 17:18:53;;;;;;;64.87;26.57;;;;;;;8.19;69.40;98013.52;1768091;79;20951;-78
2021/11/02 17:21:23;;;;;;;67.22;28.73;;;;;;;8.19;68.25;98030.80;1781353;79;21032;-79
2021/11/02 17:23:51;;;;;;;68.62;30.52;;;;;;;8.15;67.99;98035.23;1801686;79;21467;-79
2021/11/02 17:26:20;;;;;;;61.53;26.50;;;;;;;8.12;69.56;98026.28;1768286;79;21070;-79
2021/11/02 17:28:49;;;;;;;73.37;31.12;;;;;;;8.08;70.13;98033.30;1802391;79;21486;-79
2021/11/02 17:31:23;;;;;;;78.70;33.28;;;;;;;8.04;70.13;98039.47;1764732;80;21086;-80
2021/11/02 17:33:50;;;;;;;79.47;32.08;;;;;;;8.03;69.01;98038.22;1768799;79;21010;-78
2021/11/02 17:36:21;;;;;;;71.97;28.70;;;;;;;7.99;69.71;98040.05;1781813;79;21090;-79
2021/11/02 17:38:52;;;;;;;66.72;28.77;;;;;;;7.95;69.08;98028.94;1761354;80;21081;-78
2021/11/02 17:41:20;;;;;;;75.22;29.60;;;;;;;7.95;68.93;98025.05;1773711;80;20995;-79
2021/11/02 17:43:52;;;;;;;69.70;28.92;;;;;;;7.98;67.97;98030.61;1786933;79;21041;-83
2021/11/02 17:46:20;;;;;;;74.53;28.95;;;;;;;7.97;69.68;98037.50;1780672;80;21015;-80
2021/11/02 17:48:47;;;;;;;80.35;33.05;;;;;;;7.99;71.30;98047.81;1790778;79;20994;-81
2021/11/02 17:51:14;;;;;;;74.75;30.90;;;;;;;8.00;70.63;98043.47;1774447;79;21095;-78
2021/11/02 17:53:42;;;;;;;75.15;31.65;;;;;;;8.02;69.98;98037.80;1786709;79;20996;-78
2021/11/02 17:56:13;;;;;;;76.12;32.05;;;;;;;8.01;70.70;98047.77;1794623;79;22115;-79
2021/11/02 17:58:45;;;;;;;63.40;29.45;;;;;;;8.00;72.40;98046.93;1786150;79;21019;-80
2021/11/02 18:01:13;;;;;;;66.92;30.57;;;;;;;8.00;71.82;98054.70;1793159;80;20986;-78
2021/11/02 18:03:43;;;;;;;63.40;28.95;;;;;;;7.97;71.53;98047.86;1772152;80;21023;-79
2021/11/02 18:06:13;;;;;;;58.08;27.58;;;;;;;7.96;71.05;98051.81;1790415;79;20998;-79
2021/11/02 18:08:44;;;;;;;63.87;26.95;;;;;;;7.94;71.26;98053.59;1776069;78;21042;-78
2021/11/02 18:11:12;;;;;;;67.42;27.55;;;;;;;7.91;71.07;98060.14;1793239;79;20947;-79
2021/11/02 18:13:39;;;;;;;56.00;26.02;;;;;;;7.91;70.33;98054.97;1789958;78;21482;-80
2021/11/02 18:16:07;;;;;;;61.02;26.17;;;;;;;7.87;71.11;98048.20;1803330;78;20967;-79
2021/11/02 18:18:37;;;;;;;48.15;22.07;;;;;;;7.83;71.20;98055.66;1780858;80;21007;-80
2021/11/02 18:21:14;;;;;;;58.13;22.48;;;;;;;7.76;70.37;98052.42;1787638;78;21470;-78
2021/11/02 18:23:47;;;;;;;59.67;24.50;;;;;;;7.71;69.81;98056.87;1792712;79;21042;-80
2021/11/02 18:26:18;;;;;;;51.08;22.32;;;;;;;7.62;70.75;98053.26;1799455;78;21096;-79
2021/11/02 18:28:45;;;;;;;57.20;23.38;;;;;;;7.54;71.96;98070.30;1788365;78;21014;-80
2021/11/02 18:31:14;;;;;;;61.37;24.40;;;;;;;7.51;71.69;98066.52;1792274;80;21026;-80
2021/11/02 18:33:41;;;;;;;61.73;24.45;;;;;;;7.46;73.07;98065.80;1785104;80;21031;-80
2021/11/02 18:36:10;;;;;;;58.15;26.48;;;;;;;7.41;73.39;98064.64;1790586;80;21637;-80
2021/11/02 18:38:41;;;;;;;56.98;26.23;;;;;;;7.40;73.15;98072.02;1787467;80;20958;-80
2021/11/02 18:41:07;;;;;;;68.67;31.25;;;;;;;7.35;73.37;98062.23;1769883;80;21043;-80
2021/11/02 18:43:39;;;;;;;60.55;28.75;;;;;;;7.36;71.82;98078.14;1788788;80;20968;-80
2021/11/02 18:46:06;;;;;;;60.10;28.20;;;;;;;7.26;74.35;98084.04;1738515;81;21003;-80
2021/11/02 18:48:35;;;;;;;57.43;25.27;;;;;;;7.23;72.05;98075.06;1742760;81;20959;-80
2021/11/02 18:51:03;;;;;;;65.85;28.57;;;;;;;7.21;72.68;98082.02;1735539;81;21133;-79
2021/11/02 18:53:30;;;;;;;63.45;28.32;;;;;;;7.18;73.30;98087.25;1763293;81;21034;-81
2021/11/02 18:55:57;;;;;;;57.65;24.45;;;;;;;7.14;73.56;98081.34;1776079;80;21022;-80
2021/11/02 18:58:24;;;;;;;58.05;23.30;;;;;;;7.12;74.64;98091.30;1760436;81;21043;-79
2021/11/02 19:00:54;;;;;;;53.78;22.32;;;;;;;7.11;73.54;98084.45;1769153;80;21027;-79
2021/11/02 19:03:20;;;;;;;59.80;23.10;;;;;;;7.12;73.36;98080.96;1745256;80;20991;-80
2021/11/02 19:05:48;;;;;;;50.50;22.70;;;;;;;7.13;74.02;98088.69;1760354;80;21010;-80
2021/11/02 19:08:16;;;;;;;57.75;23.05;;;;;;;7.16;74.28;98098.08;1743223;80;21435;-79
2021/11/02 19:10:46;;;;;;;54.65;22.10;;;;;;;7.20;74.54;98096.27;1755977;80;20968;-78
2021/11/02 19:13:14;;;;;;;54.58;22.52;;;;;;;7.23;74.73;98076.81;1761361;80;21547;-78
2021/11/02 19:15:41;;;;;;;52.60;22.60;;;;;;;7.26;73.92;98083.17;1764715;80;21484;-78
2021/11/02 19:18:10;;;;;;;52.48;23.52;;;;;;;7.31;74.83;98091.66;1767073;80;20979;-78
2021/11/02 19:20:36;;;;;;;57.67;25.57;;;;;;;7.35;73.98;98100.56;1786877;80;21018;-78
2021/11/02 19:23:03;;;;;;;59.03;27.85;;;;;;;7.35;75.24;98100.56;1769304;80;21080;-79
2021/11/02 19:25:30;;;;;;;63.25;28.17;;;;;;;7.38;75.08;98106.09;1758309;81;21015;-79
2021/11/02 19:27:56;;;;;;;57.78;26.40;;;;;;;7.39;75.12;98112.97;1789013;79;21008;-80
2021/11/02 19:30:23;;;;;;;61.75;26.48;;;;;;;7.40;74.76;98115.11;1766302;80;20987;-80
2021/11/02 19:32:49;;;;;;;62.38;27.20;;;;;;;7.40;74.37;98125.45;1730441;81;21313;-80
2021/11/02 19:35:16;;;;;;;59.33;26.60;;;;;;;7.38;74.46;98112.55;1755695;81;20984;-79
2021/11/02 19:37:45;;;;;;;59.93;24.10;;;;;;;7.36;73.29;98124.26;1780582;80;20999;-81
2021/11/02 19:40:11;;;;;;;54.65;23.42;;;;;;;7.31;73.59;98124.81;1772727;80;21562;-80
2021/11/02 19:42:38;;;;;;;58.02;22.73;;;;;;;7.29;72.50;98124.02;1748336;80;21471;-80
2021/11/02 19:45:06;;;;;;;57.33;22.67;;;;;;;7.25;73.09;98127.57;1744182;80;21026;-80
2021/11/02 19:47:32;;;;;;;65.90;25.82;;;;;;;7.21;73.86;98145.34;1744974;80;21062;-80
2021/11/02 19:49:59;;;;;;;57.75;23.80;;;;;;;7.19;74.21;98143.70;1751821;80;21596;-81
2021/11/02 19:52:26;;;;;;;58.80;23.83;;;;;;;7.14;76.09;98148.55;1755915;80;20995;-80
2021/11/02 19:54:53;;;;;;;55.75;22.67;;;;;;;7.13;73.54;98146.00;1758749;80;21016;-79
2021/11/02 19:57:21;;;;;;;65.32;23.90;;;;;;;7.07;75.74;98152.17;1772068;80;20967;-79
2021/11/02 19:59:48;;;;;;;57.50;27.07;;;;;;;7.05;75.92;98158.28;1761758;80;21012;-80
2021/11/02 20:02:19;;;;;;;62.25;27.62;;;;;;;7.01;74.24;98147.62;1776429;80;20971;-80
2021/11/02 20:04:46;;;;;;;64.27;27.90;;;;;;;6.99;75.43;98146.81;1763032;80;21024;-80
2021/11/02 20:07:21;;;;;;;64.67;26.37;;;;;;;6.92;74.39;98147.39;1744462;80;20991;-80
2021/11/02 20:09:51;;;;;;;60.98;23.85;;;;;;;6.86;76.06;98149.68;1764325;80;21075;-80
2021/11/02 20:12:26;;;;;;;65.93;24.07;;;;;;;6.80;74.63;98150.29;1743771;80;21065;-79
2021/11/02 20:14:56;;;;;;;65.47;24.12;;;;;;;6.73;75.58;98150.44;1768477;80;21039;-79
2021/11/02 20:17:27;;;;;;;63.02;25.68;;;;;;;6.70;74.51;98161.29;1766031;80;20952;-79
2021/11/02 20:19:57;;;;;;;61.15;24.98;;;;;;;6.65;74.99;98154.95;1775634;80;20998;-79
2021/11/02 20:22:26;;;;;;;62.17;24.37;;;;;;;6.63;75.10;98159.76;1743067;81;21059;-80
2021/11/02 20:24:54;;;;;;;67.12;25.97;;;;;;;6.61;75.42;98156.36;1706232;82;22154;-80
2021/11/02 20:27:25;;;;;;;55.75;24.72;;;;;;;6.59;76.11;98155.55;1737076;79;21025;-77
2021/11/02 20:29:50;;;;;;;59.15;24.40;;;;;;;6.61;75.14;98162.83;1780596;80;21012;-79
2021/11/02 20:32:19;;;;;;;64.92;25.52;;;;;;;6.62;75.42;98168.38;1794128;80;20991;-80
2021/11/02 20:34:46;;;;;;;67.70;26.25;;;;;;;6.62;75.46;98173.55;1781646;80;21022;-80
2021/11/02 20:37:16;;;;;;;58.73;24.15;;;;;;;6.63;75.48;98174.80;1784931;80;20983;-79
2021/11/02 20:39:58;;;;;;;61.28;24.10;;;;;;;6.65;75.71;98170.45;1788213;80;20999;-80
2021/11/02 20:42:41;;;;;;;65.20;27.55;;;;;;;6.68;75.21;98166.48;1771506;80;20999;-80
2021/11/02 20:45:09;;;;;;;62.23;28.00;;;;;;;6.71;74.95;98173.33;1783187;80;21539;-80
2021/11/02 20:47:46;;;;;;;64.42;27.10;;;;;;;6.70;75.93;98165.16;1784671;80;21495;-77
2021/11/02 20:50:13;;;;;;;60.90;26.10;;;;;;;6.66;75.27;98172.13;1791728;80;21599;-80
2021/11/02 20:52:40;;;;;;;56.77;25.23;;;;;;;6.62;77.21;98170.51;1787392;80;21010;-78
2021/11/02 20:55:09;;;;;;;61.40;27.67;;;;;;;6.60;75.36;98177.89;1794230;80;21491;-78
2021/11/02 20:57:36;;;;;;;59.13;24.25;;;;;;;6.57;74.74;98184.83;1781975;80;21042;-80
2021/11/02 21:00:09;;;;;;;56.70;25.12;;;;;;;6.54;76.05;98191.80;1798007;80;21593;-80
2021/11/02 21:02:37;;;;;;;58.52;25.43;;;;;;;6.49;74.71;98186.75;1776294;80;21051;-81
2021/11/02 21:05:04;;;;;;;56.90;25.17;;;;;;;6.44;75.05;98176.95;1792630;80;20991;-79
2021/11/02 21:07:44;;;;;;;54.90;24.77;;;;;;;6.40;74.41;98183.08;1779807;80;20983;-79
2021/11/02 21:10:15;;;;;;;51.95;22.00;;;;;;;6.38;74.17;98183.55;1791311;80;21462;-80
2021/11/02 21:12:44;;;;;;;59.65;23.12;;;;;;;6.34;75.11;98172.89;1775681;80;21444;-80
2021/11/02 21:15:14;;;;;;;54.90;21.75;;;;;;;6.33;75.18;98177.66;1761648;80;21045;-79
2021/11/02 21:17:42;;;;;;;57.08;22.55;;;;;;;6.35;77.63;98181.90;1740166;81;20999;-80
2021/11/02 21:20:19;;;;;;;52.62;22.82;;;;;;;6.37;77.66;98180.58;1789924;80;20983;-80